Time;durP1;ratioP1;P1;durP2;ratioP2;P2;SDS_P1;SDS_P2;PMS_P1;PMS_P2;Temp;Humidity;BMP_temperature;BMP_pressure;BME280_temperature;BME280_humidity;BME280_pressure;Samples;Min_cycle;Max_cycle;Signal;HPM_P1;HPM_P2
2021/03/18 00:01:27;;;;;;;;;;;;;;;3.21;71.34;96160.58;1789396;79;20222;-55
2021/03/18 00:03:55;;;;;;;;;;;;;;;3.23;71.29;96162.61;1794563;80;22303;-54
2021/03/18 00:06:23;;;;;;;;;;;;;;;3.24;71.14;96161.27;1788132;80;20498;-55
2021/03/18 00:08:52;;;;;;;;;;;;;;;3.22;71.16;96166.07;1785250;80;20273;-56
2021/03/18 00:11:21;;;;;;;;;;;;;;;3.19;71.20;96163.22;1782365;80;20218;-55
2021/03/18 00:13:48;;;;;;;;;;;;;;;3.23;71.20;96166.45;1791228;80;20233;-55
2021/03/18 00:16:16;;;;;;;;;;;;;;;3.22;71.12;96163.05;1788532;80;21375;-55
2021/03/18 00:18:47;;;;;;;;;;;;;;;3.24;70.95;96161.69;1784503;80;20287;-54
2021/03/18 00:21:14;;;;;;;;;;;;;;;3.21;70.90;96165.25;1793899;80;20236;-54
2021/03/18 00:23:42;;;;;;;;;;;;;;;3.17;70.97;96161.16;1757007;81;20243;-55
2021/03/18 00:26:09;;;;;;;;;;;;;;;3.16;70.89;96165.92;1764063;81;20214;-54
2021/03/18 00:28:36;;;;;;;;;;;;;;;3.13;70.95;96161.77;1802519;79;21206;-57
2021/03/18 00:31:05;;;;;;;;;;;;;;;3.11;70.96;96162.30;1796643;79;20593;-54
2021/03/18 00:33:33;;;;;;;;;;;;;;;3.11;70.85;96161.02;1747323;81;20494;-55
2021/03/18 00:36:00;;;;;;;;;;;;;;;3.09;70.85;96164.54;1742187;80;20230;-55
2021/03/18 00:38:27;;;;;;;;;;;;;;;3.08;70.99;96162.90;1749281;81;20233;-55
2021/03/18 00:41:01;;;;;;;;;;;;;;;3.11;70.94;96171.27;1769137;80;21183;-55
2021/03/18 00:43:28;;;;;;;;;;;;;;;3.12;70.99;96170.38;1747210;81;20237;-54
2021/03/18 00:45:56;;;;;;;;;;;;;;;3.16;70.99;96172.77;1735494;82;20221;-55
2021/03/18 00:48:24;;;;;;;;;;;;;;;3.16;70.89;96166.36;1745130;82;20210;-54
2021/03/18 00:50:55;;;;;;;;;;;;;;;3.15;70.93;96157.84;1757662;80;20222;-54
2021/03/18 00:53:26;;;;;;;;;;;;;;;3.16;70.84;96161.23;1773532;80;21266;-54
2021/03/18 00:55:53;;;;;;;;;;;;;;;3.12;70.86;96160.13;1770646;80;20509;-54
2021/03/18 00:58:20;;;;;;;;;;;;;;;3.09;70.96;96160.69;1763596;81;20208;-54
2021/03/18 01:00:50;;;;;;;;;;;;;;;3.06;70.87;96164.68;1758529;81;20273;-53
2021/03/18 01:03:18;;;;;;;;;;;;;;;3.04;70.95;96164.78;1730840;82;20218;-54
2021/03/18 01:05:50;;;;;;;;;;;;;;;3.03;71.06;96170.80;1798017;79;20485;-54
2021/03/18 01:08:19;;;;;;;;;;;;;;;3.03;71.10;96161.01;1799809;79;20217;-54
2021/03/18 01:10:55;;;;;;;;;;;;;;;3.05;71.21;96160.48;1798019;79;20300;-53
2021/03/18 01:13:22;;;;;;;;;;;;;;;3.06;71.02;96159.13;1803829;79;20213;-53
2021/03/18 01:15:58;;;;;;;;;;;;;;;3.07;70.98;96158.20;1764966;80;20230;-54
2021/03/18 01:18:32;;;;;;;;;;;;;;;3.06;70.84;96160.41;1741115;82;21228;-53
2021/03/18 01:21:00;;;;;;;;;;;;;;;3.00;70.95;96160.69;1741089;82;20242;-53
2021/03/18 01:23:27;;;;;;;;;;;;;;;3.01;71.03;96158.94;1791288;79;20213;-54
2021/03/18 01:25:54;;;;;;;;;;;;;;;3.02;70.95;96159.34;1784255;79;20256;-55
2021/03/18 01:28:21;;;;;;;;;;;;;;;3.04;71.05;96155.81;1771741;80;20337;-55
2021/03/18 01:30:52;;;;;;;;;;;;;;;3.08;71.02;96155.20;1777936;80;21468;-54
2021/03/18 01:33:20;;;;;;;;;;;;;;;3.10;70.72;96159.34;1787613;80;20249;-55
2021/03/18 01:35:47;;;;;;;;;;;;;;;3.06;70.80;96162.12;1782248;80;20220;-55
2021/03/18 01:38:14;;;;;;;;;;;;;;;3.03;70.90;96156.70;1767553;80;20321;-54
2021/03/18 01:40:42;;;;;;;;;;;;;;;3.04;70.91;96156.23;1740874;81;20285;-55
2021/03/18 01:43:09;;;;;;;;;;;;;;;3.05;70.87;96155.34;1757768;81;21378;-55
2021/03/18 01:45:36;;;;;;;;;;;;;;;3.09;70.66;96153.00;1758414;81;20518;-55
2021/03/18 01:48:07;;;;;;;;;;;;;;;3.05;70.66;96157.91;1720528;82;20257;-55
2021/03/18 01:50:36;;;;;;;;;;;;;;;3.05;70.70;96159.19;1755585;81;21013;-55
2021/03/18 01:53:04;;;;;;;;;;;;;;;3.07;70.73;96162.05;1779439;80;20242;-54
2021/03/18 01:55:37;;;;;;;;;;;;;;;3.10;70.69;96164.92;1777696;80;21355;-54
2021/03/18 01:58:05;;;;;;;;;;;;;;;3.10;70.61;96161.91;1782085;80;20212;-54
2021/03/18 02:00:33;;;;;;;;;;;;;;;3.09;70.51;96164.11;1772626;80;20550;-55
2021/03/18 02:03:00;;;;;;;;;;;;;;;3.09;70.47;96166.67;1781374;80;20222;-55
2021/03/18 02:05:29;;;;;;;;;;;;;;;3.09;70.40;96164.11;1784616;80;20214;-55
2021/03/18 02:07:57;;;;;;;;;;;;;;;3.05;70.33;96159.19;1777202;80;39087;-55
2021/03/18 02:10:28;;;;;;;;;;;;;;;3.01;70.23;96171.33;1781622;80;20222;-55
2021/03/18 02:12:56;;;;;;;;;;;;;;;2.94;70.32;96172.50;1779683;80;20217;-55
2021/03/18 02:15:31;;;;;;;;;;;;;;;2.87;70.53;96175.80;1785247;80;20211;-54
2021/03/18 02:18:07;;;;;;;;;;;;;;;2.83;70.64;96179.85;1779708;80;20535;-53
2021/03/18 02:20:58;;;;;;;;;;;;;;;2.79;70.75;96180.91;1784668;80;21207;-55
2021/03/18 02:23:53;;;;;;;;;;;;;;;2.74;70.71;96172.97;1787068;80;20223;-52
2021/03/18 02:26:53;;;;;;;;;;;;;;;2.67;70.71;96173.34;1784620;79;20458;-54
2021/03/18 02:29:54;;;;;;;;;;;;;;;2.58;70.82;96175.85;1779947;79;20275;-53
2021/03/18 02:33:02;;;;;;;;;;;;;;;2.60;71.02;96182.19;1772344;79;20322;-52
2021/03/18 02:35:36;;;;;;;;;;;;;;;2.66;71.05;96182.73;1767530;81;21203;-53
2021/03/18 02:38:07;;;;;;;;;;;;;;;2.71;70.79;96180.83;1742711;81;20494;-52
2021/03/18 02:40:43;;;;;;;;;;;;;;;2.74;70.51;96178.55;1767937;79;20229;-53
2021/03/18 02:43:12;;;;;;;;;;;;;;;2.74;70.44;96183.22;1770081;81;20220;-53
2021/03/18 02:45:49;;;;;;;;;;;;;;;2.78;70.21;96189.06;1762934;81;20227;-53
2021/03/18 02:48:24;;;;;;;;;;;;;;;2.75;69.79;96190.02;1770152;81;21393;-53
2021/03/18 02:50:51;;;;;;;;;;;;;;;2.69;69.73;96186.91;1763027;81;20263;-52
2021/03/18 02:53:19;;;;;;;;;;;;;;;2.66;69.84;96195.55;1747937;81;20218;-52
2021/03/18 02:55:47;;;;;;;;;;;;;;;2.71;69.92;96194.06;1733208;81;20222;-54
2021/03/18 02:58:16;;;;;;;;;;;;;;;2.78;69.79;96194.61;1770112;81;20244;-53
2021/03/18 03:00:43;;;;;;;;;;;;;;;2.83;69.69;96199.92;1762356;80;21389;-53
2021/03/18 03:03:11;;;;;;;;;;;;;;;2.83;69.71;96196.51;1754595;81;20243;-52
2021/03/18 03:05:38;;;;;;;;;;;;;;;2.83;69.82;96202.91;1742490;81;20234;-53
2021/03/18 03:08:07;;;;;;;;;;;;;;;2.85;69.72;96200.67;1720269;82;20226;-53
2021/03/18 03:10:36;;;;;;;;;;;;;;;2.86;69.51;96205.34;1733740;81;20216;-54
2021/03/18 03:13:03;;;;;;;;;;;;;;;2.84;69.35;96205.41;1743966;81;21552;-53
2021/03/18 03:15:32;;;;;;;;;;;;;;;2.83;69.03;96206.76;1760198;80;20759;-53
2021/03/18 03:18:01;;;;;;;;;;;;;;;2.76;69.00;96209.62;1740479;81;20218;-54
2021/03/18 03:20:29;;;;;;;;;;;;;;;2.74;69.15;96206.28;1753769;81;20232;-54
2021/03/18 03:22:56;;;;;;;;;;;;;;;2.75;69.17;96204.11;1743355;81;20506;-54
2021/03/18 03:25:25;;;;;;;;;;;;;;;2.75;69.24;96205.84;1723337;82;20249;-54
2021/03/18 03:27:52;;;;;;;;;;;;;;;2.72;69.28;96213.67;1788722;79;20223;-54
2021/03/18 03:30:21;;;;;;;;;;;;;;;2.73;69.24;96210.19;1771516;79;21439;-53
2021/03/18 03:32:48;;;;;;;;;;;;;;;2.65;69.17;96211.84;1759248;81;20854;-53
2021/03/18 03:35:18;;;;;;;;;;;;;;;2.58;68.88;96211.71;1760054;80;20225;-53
2021/03/18 03:37:45;;;;;;;;;;;;;;;2.50;68.91;96213.78;1798328;79;21366;-53
2021/03/18 03:40:15;;;;;;;;;;;;;;;2.45;68.88;96210.59;1777760;79;20212;-53
2021/03/18 03:42:42;;;;;;;;;;;;;;;2.39;69.05;96219.39;1777635;79;20274;-54
2021/03/18 03:45:11;;;;;;;;;;;;;;;2.38;69.16;96217.30;1759521;81;20238;-53
2021/03/18 03:47:40;;;;;;;;;;;;;;;2.37;69.17;96211.78;1727764;81;20506;-53
2021/03/18 03:50:12;;;;;;;;;;;;;;;2.37;69.09;96221.20;1748072;79;21275;-52
2021/03/18 03:53:00;;;;;;;;;;;;;;;2.37;69.05;96228.42;1764618;79;20503;-53
2021/03/18 03:55:36;;;;;;;;;;;;;;;2.38;69.08;96231.38;1770360;81;20220;-53
2021/03/18 03:58:17;;;;;;;;;;;;;;;2.40;68.85;96228.72;1744670;81;20220;-52
2021/03/18 04:00:44;;;;;;;;;;;;;;;2.37;68.79;96228.87;1762501;79;20211;-53
2021/03/18 04:03:12;;;;;;;;;;;;;;;2.37;68.89;96232.27;1785597;79;21211;-53
2021/03/18 04:05:43;;;;;;;;;;;;;;;2.41;68.90;96230.39;1787085;79;20583;-53
2021/03/18 04:08:11;;;;;;;;;;;;;;;2.41;68.93;96233.41;1754030;81;20490;-54
2021/03/18 04:10:42;;;;;;;;;;;;;;;2.41;68.95;96230.85;1770641;79;21067;-54
2021/03/18 04:13:10;;;;;;;;;;;;;;;2.38;68.94;96234.37;1781906;79;20222;-53
2021/03/18 04:15:38;;;;;;;;;;;;;;;2.34;68.99;96233.67;1779008;79;22216;-54
2021/03/18 04:18:05;;;;;;;;;;;;;;;2.35;69.11;96234.07;1786602;79;20664;-54
2021/03/18 04:20:34;;;;;;;;;;;;;;;2.36;69.05;96229.77;1766351;79;20218;-54
2021/03/18 04:23:03;;;;;;;;;;;;;;;2.38;69.16;96237.78;1771330;79;20224;-54
2021/03/18 04:25:30;;;;;;;;;;;;;;;2.42;69.29;96236.34;1765462;79;20209;-53
2021/03/18 04:27:57;;;;;;;;;;;;;;;2.41;68.89;96239.36;1791501;80;21215;-54
2021/03/18 04:30:26;;;;;;;;;;;;;;;2.32;69.12;96244.44;1795717;80;20210;-54
2021/03/18 04:32:54;;;;;;;;;;;;;;;2.28;69.18;96244.63;1754178;81;20495;-53
2021/03/18 04:35:22;;;;;;;;;;;;;;;2.23;69.15;96249.13;1743441;81;20298;-54
2021/03/18 04:37:50;;;;;;;;;;;;;;;2.15;69.07;96248.98;1767328;80;20496;-55
2021/03/18 04:40:21;;;;;;;;;;;;;;;2.16;69.31;96247.27;1774331;80;20482;-54
2021/03/18 04:42:48;;;;;;;;;;;;;;;2.25;69.40;96244.76;1767139;81;20220;-53
2021/03/18 04:45:18;;;;;;;;;;;;;;;2.30;69.38;96244.96;1770487;80;20260;-54
2021/03/18 04:47:45;;;;;;;;;;;;;;;2.35;69.33;96246.88;1798366;80;20655;-53
2021/03/18 04:50:13;;;;;;;;;;;;;;;2.39;68.79;96247.56;1789866;80;20218;-53
2021/03/18 04:52:41;;;;;;;;;;;;;;;2.38;68.65;96253.57;1792978;80;22339;-54
2021/03/18 04:55:09;;;;;;;;;;;;;;;2.35;68.48;96254.55;1767500;81;20741;-52
2021/03/18 04:57:39;;;;;;;;;;;;;;;2.33;68.55;96256.33;1770128;81;20240;-53
2021/03/18 05:00:08;;;;;;;;;;;;;;;2.29;68.76;96253.53;1788967;80;20237;-53
2021/03/18 05:02:35;;;;;;;;;;;;;;;2.34;69.01;96263.58;1769837;80;20245;-53
2021/03/18 05:05:06;;;;;;;;;;;;;;;2.36;68.90;96256.66;1782094;80;22420;-53
2021/03/18 05:07:34;;;;;;;;;;;;;;;2.38;68.99;96266.37;1780481;80;20248;-53
2021/03/18 05:10:03;;;;;;;;;;;;;;;2.40;68.83;96265.85;1749126;80;20266;-53
2021/03/18 05:12:31;;;;;;;;;;;;;;;2.40;68.53;96268.41;1754030;81;20235;-54
2021/03/18 05:14:58;;;;;;;;;;;;;;;2.35;68.46;96264.80;1750712;81;20218;-53
2021/03/18 05:17:26;;;;;;;;;;;;;;;2.34;68.59;96262.30;1743090;81;21169;-53
2021/03/18 05:19:53;;;;;;;;;;;;;;;2.34;68.72;96269.52;1785935;80;20524;-55
2021/03/18 05:22:21;;;;;;;;;;;;;;;2.37;68.73;96268.56;1777591;80;20503;-53
2021/03/18 05:24:49;;;;;;;;;;;;;;;2.37;68.60;96273.23;1724617;81;20245;-54
2021/03/18 05:27:16;;;;;;;;;;;;;;;2.38;68.60;96268.94;1734182;82;20243;-52
2021/03/18 05:29:44;;;;;;;;;;;;;;;2.36;68.53;96270.28;1728333;82;21231;-52
2021/03/18 05:32:11;;;;;;;;;;;;;;;2.38;68.46;96277.47;1748118;81;20303;-55
2021/03/18 05:34:39;;;;;;;;;;;;;;;2.41;68.36;96275.66;1739803;81;20231;-53
2021/03/18 05:37:07;;;;;;;;;;;;;;;2.44;68.08;96274.26;1734924;82;22224;-53
2021/03/18 05:39:34;;;;;;;;;;;;;;;2.49;68.16;96276.98;1753314;81;20244;-54
2021/03/18 05:42:03;;;;;;;;;;;;;;;2.56;68.02;96276.27;1733908;82;21175;-55
2021/03/18 05:44:32;;;;;;;;;;;;;;;2.62;67.84;96280.31;1725551;82;20273;-55
2021/03/18 05:46:59;;;;;;;;;;;;;;;2.67;67.74;96282.22;1744141;81;20294;-55
2021/03/18 05:49:28;;;;;;;;;;;;;;;2.65;67.64;96283.98;1747902;81;20274;-54
2021/03/18 05:51:56;;;;;;;;;;;;;;;2.66;67.43;96284.38;1739508;81;20279;-54
2021/03/18 05:54:23;;;;;;;;;;;;;;;2.67;67.58;96290.72;1753027;81;21400;-54
2021/03/18 05:56:50;;;;;;;;;;;;;;;2.69;67.48;96288.09;1755311;81;20223;-54
2021/03/18 05:59:18;;;;;;;;;;;;;;;2.70;67.45;96292.34;1757863;81;20240;-54
2021/03/18 06:01:46;;;;;;;;;;;;;;;2.73;67.54;96296.02;1725209;82;21300;-54
2021/03/18 06:04:13;;;;;;;;;;;;;;;2.80;67.56;96296.14;1753282;81;20299;-54
2021/03/18 06:06:43;;;;;;;;;;;;;;;2.87;67.05;96297.52;1747497;81;20224;-54
2021/03/18 06:09:10;;;;;;;;;;;;;;;2.91;66.91;96300.78;1750941;81;20267;-53
2021/03/18 06:11:39;;;;;;;;;;;;;;;2.92;66.58;96307.58;1723240;82;20225;-55
2021/03/18 06:14:06;;;;;;;;;;;;;;;2.92;66.54;96307.11;1736831;81;20219;-55
2021/03/18 06:16:34;;;;;;;;;;;;;;;2.92;66.52;96313.98;1736440;81;20266;-55
2021/03/18 06:19:06;;;;;;;;;;;;;;;2.90;66.40;96315.80;1759927;81;21387;-56
2021/03/18 06:21:51;;;;;;;;;;;;;;;2.84;66.53;96320.72;1750909;81;20294;-54
2021/03/18 06:24:19;;;;;;;;;;;;;;;2.82;66.62;96322.52;1754715;81;21160;-56
2021/03/18 06:26:47;;;;;;;;;;;;;;;2.82;66.60;96314.02;1759471;80;21279;-55
2021/03/18 06:29:35;;;;;;;;;;;;;;;2.79;66.54;96319.27;1749657;81;20508;-56
2021/03/18 06:32:16;;;;;;;;;;;;;;;2.80;66.59;96324.79;1734833;81;21522;-56
2021/03/18 06:34:49;;;;;;;;;;;;;;;2.82;66.66;96317.86;1766704;81;20300;-55
2021/03/18 06:37:40;;;;;;;;;;;;;;;2.88;66.84;96324.00;1803002;79;20209;-55
2021/03/18 06:40:13;;;;;;;;;;;;;;;2.99;66.70;96326.07;1792645;79;20400;-57
2021/03/18 06:42:42;;;;;;;;;;;;;;;3.11;66.51;96324.26;1796614;79;20229;-61
2021/03/18 06:45:11;;;;;;;;;;;;;;;3.28;66.34;96326.87;1781738;79;21212;-56
2021/03/18 06:47:51;;;;;;;;;;;;;;;3.43;65.67;96322.77;1794353;79;20289;-56
2021/03/18 06:50:21;;;;;;;;;;;;;;;3.50;65.12;96320.75;1790928;79;20565;-55
2021/03/18 06:52:48;;;;;;;;;;;;;;;3.54;64.75;96323.56;1786610;79;20218;-55
2021/03/18 06:55:30;;;;;;;;;;;;;;;3.54;64.75;96326.59;1795351;79;20215;-57
2021/03/18 06:58:23;;;;;;;;;;;;;;;3.50;64.79;96324.59;1795084;79;21439;-55
2021/03/18 07:00:56;;;;;;;;;;;;;;;3.42;64.72;96334.37;1797335;78;20213;-56
2021/03/18 07:03:27;;;;;;;;;;;;;;;3.34;64.88;96330.05;1800385;79;20221;-57
2021/03/18 07:05:56;;;;;;;;;;;;;;;3.29;64.87;96337.98;1770329;80;21007;-55
2021/03/18 07:08:38;;;;;;;;;;;;;;;3.20;65.07;96343.05;1764428;80;20218;-55
2021/03/18 07:11:22;;;;;;;;;;;;;;;3.17;64.91;96342.36;1757750;81;21226;-55
2021/03/18 07:13:50;;;;;;;;;;;;;;;3.10;64.89;96341.34;1791273;79;20205;-56
2021/03/18 07:16:17;;;;;;;;;;;;;;;3.04;65.05;96349.34;1792874;79;20234;-57
2021/03/18 07:18:54;;;;;;;;;;;;;;;3.03;64.90;96346.38;1794895;79;20214;-55
2021/03/18 07:21:37;;;;;;;;;;;;;;;3.03;64.80;96351.51;1789096;79;20284;-56
2021/03/18 07:24:06;;;;;;;;;;;;;;;3.07;64.80;96354.77;1795624;79;22048;-55
2021/03/18 07:26:38;;;;;;;;;;;;;;;3.15;65.03;96356.53;1769296;79;20299;-56
2021/03/18 07:29:15;;;;;;;;;;;;;;;3.25;64.49;96349.27;1792078;79;20227;-55
2021/03/18 07:31:42;;;;;;;;;;;;;;;3.22;64.36;96348.94;1796917;79;20257;-55
2021/03/18 07:34:11;;;;;;;;;;;;;;;3.26;64.34;96350.94;1788385;79;20211;-56
2021/03/18 07:36:39;;;;;;;;;;;;;;;3.29;63.88;96346.95;1797133;79;21377;-57
2021/03/18 07:39:07;;;;;;;;;;;;;;;3.32;63.96;96354.48;1770311;80;20215;-55
2021/03/18 07:41:36;;;;;;;;;;;;;;;3.36;63.55;96355.20;1724363;82;20216;-54
2021/03/18 07:44:06;;;;;;;;;;;;;;;3.39;63.65;96349.47;1764748;81;20212;-57
2021/03/18 07:46:35;;;;;;;;;;;;;;;3.52;63.65;96351.46;1758351;81;20281;-57
2021/03/18 07:49:06;;;;;;;;;;;;;;;3.64;63.46;96348.34;1732402;82;21260;-58
2021/03/18 07:51:35;;;;;;;;;;;;;;;3.70;62.83;96349.34;1724332;82;20289;-58
2021/03/18 07:54:02;;;;;;;;;;;;;;;3.71;62.89;96343.75;1765216;81;20514;-58
2021/03/18 07:56:30;;;;;;;;;;;;;;;3.77;62.76;96349.42;1758132;81;20261;-57
2021/03/18 07:58:59;;;;;;;;;;;;;;;3.84;62.12;96351.24;1794781;79;20556;-56
2021/03/18 08:01:33;;;;;;;;;;;;;;;3.89;61.72;96344.61;1751002;79;22269;-58
2021/03/18 08:04:06;;;;;;;;;;;;;;;3.92;61.61;96347.86;1797996;79;20236;-57
2021/03/18 08:06:45;;;;;;;;;;;;;;;3.93;61.36;96344.40;1794768;79;20520;-57
2021/03/18 08:09:20;;;;;;;;;;;;;;;3.94;61.49;96342.66;1799958;79;20949;-57
2021/03/18 08:11:47;;;;;;;;;;;;;;;3.92;61.02;96347.03;1767724;80;20200;-59
2021/03/18 08:14:16;;;;;;;;;;;;;;;3.92;61.07;96350.89;1730428;82;22164;-58
2021/03/18 08:16:44;;;;;;;;;;;;;;;3.94;61.20;96351.17;1728075;82;20230;-57
2021/03/18 08:19:13;;;;;;;;;;;;;;;4.07;61.11;96353.17;1762027;81;20293;-57
2021/03/18 08:21:50;;;;;;;;;;;;;;;4.20;60.73;96355.52;1793019;79;20236;-57
2021/03/18 08:24:23;;;;;;;;;;;;;;;4.27;60.56;96350.91;1783235;79;20255;-57
2021/03/18 08:26:52;;;;;;;;;;;;;;;4.38;60.91;96358.45;1793832;79;21209;-57
2021/03/18 08:29:45;;;;;;;;;;;;;;;4.52;60.64;96361.64;1775729;79;20245;-57
2021/03/18 08:32:30;;;;;;;;;;;;;;;4.64;60.50;96359.34;1767756;81;20216;-57
2021/03/18 08:35:00;;;;;;;;;;;;;;;4.80;60.12;96357.65;1773056;79;20295;-57
2021/03/18 08:37:35;;;;;;;;;;;;;;;4.96;59.75;96362.84;1765028;79;20218;-57
2021/03/18 08:40:06;;;;;;;;;;;;;;;5.14;59.06;96361.05;1769433;79;22282;-57
2021/03/18 08:42:35;;;;;;;;;;;;;;;5.20;59.16;96363.31;1774778;79;20275;-57
2021/03/18 08:45:13;;;;;;;;;;;;;;;5.35;58.82;96366.81;1768299;79;20237;-56
2021/03/18 08:47:43;;;;;;;;;;;;;;;5.53;58.63;96369.69;1779773;79;20228;-56
2021/03/18 08:50:28;;;;;;;;;;;;;;;5.74;57.93;96372.45;1774847;79;20322;-55
2021/03/18 08:52:56;;;;;;;;;;;;;;;5.77;56.99;96377.44;1769965;79;21328;-58
2021/03/18 08:55:38;;;;;;;;;;;;;;;5.70;57.63;96379.52;1771383;79;20225;-58
2021/03/18 08:58:08;;;;;;;;;;;;;;;5.88;57.17;96366.09;1742962;81;20222;-58
2021/03/18 09:00:37;;;;;;;;;;;;;;;5.97;56.52;96374.64;1769878;79;20499;-56
2021/03/18 09:03:07;;;;;;;;;;;;;;;6.12;56.24;96372.11;1770174;79;20216;-56
2021/03/18 09:05:36;;;;;;;;;;;;;;;6.20;55.74;96378.51;1776103;79;21260;-56
2021/03/18 09:08:05;;;;;;;;;;;;;;;6.20;55.95;96372.50;1767771;79;20216;-55
2021/03/18 09:10:34;;;;;;;;;;;;;;;6.28;55.32;96376.77;1774729;79;20520;-55
2021/03/18 09:13:06;;;;;;;;;;;;;;;6.27;54.86;96380.28;1768306;79;20229;-56
2021/03/18 09:15:36;;;;;;;;;;;;;;;6.21;54.70;96381.44;1765342;79;20246;-57
2021/03/18 09:18:25;;;;;;;;;;;;;;;6.21;55.18;96385.77;1767979;79;21513;-56
2021/03/18 09:21:00;;;;;;;;;;;;;;;6.31;54.88;96381.75;1765078;81;20252;-57
2021/03/18 09:23:31;;;;;;;;;;;;;;;6.44;54.72;96386.57;1771991;79;20220;-58
2021/03/18 09:26:00;;;;;;;;;;;;;;;6.68;54.32;96378.36;1766156;79;21083;-57
2021/03/18 09:28:34;;;;;;;;;;;;;;;6.99;53.43;96381.25;1777514;79;21347;-56
2021/03/18 09:31:02;;;;;;;;;;;;;;;7.24;52.51;96381.06;1798660;79;22124;-56
2021/03/18 09:33:35;;;;;;;;;;;;;;;7.53;52.09;96379.73;1784412;79;21215;-58
2021/03/18 09:36:06;;;;;;;;;;;;;;;7.73;51.39;96376.76;1795979;79;20233;-58
2021/03/18 09:38:35;;;;;;;;;;;;;;;7.92;50.42;96384.16;1789490;79;20239;-56
2021/03/18 09:41:02;;;;;;;;;;;;;;;7.99;50.56;96377.33;1799040;79;20559;-57
2021/03/18 09:43:29;;;;;;;;;;;;;;;8.32;50.19;96383.37;1802642;79;22808;-56
2021/03/18 09:46:04;;;;;;;;;;;;;;;8.87;49.08;96382.02;1800542;79;20227;-57
2021/03/18 09:48:33;;;;;;;;;;;;;;;9.32;48.81;96383.21;1803750;79;20838;-56
2021/03/18 09:51:13;;;;;;;;;;;;;;;9.80;47.78;96386.84;1799646;79;20353;-56
2021/03/18 09:53:42;;;;;;;;;;;;;;;10.13;46.63;96388.34;1794515;79;20213;-56
2021/03/18 09:56:12;;;;;;;;;;;;;;;10.46;45.76;96382.13;1792940;79;21190;-56
2021/03/18 09:58:40;;;;;;;;;;;;;;;10.70;44.46;96385.16;1805395;79;20213;-56
2021/03/18 10:01:17;;;;;;;;;;;;;;;10.79;44.22;96390.50;1796668;79;20203;-57
2021/03/18 10:03:59;;;;;;;;;;;;;;;10.91;43.64;96378.37;1796362;79;20237;-51
2021/03/18 10:06:31;;;;;;;;;;;;;;;10.78;43.04;96384.12;1802845;79;20573;-56
2021/03/18 10:09:30;;;;;;;;;;;;;;;10.50;43.30;96386.98;1795168;79;21262;-53
2021/03/18 10:12:05;;;;;;;;;;;;;;;10.38;43.49;96386.59;1794743;79;20214;-53
2021/03/18 10:14:36;;;;;;;;;;;;;;;10.37;44.02;96388.82;1802309;79;20560;-53
2021/03/18 10:17:16;;;;;;;;;;;;;;;10.32;43.72;96388.33;1787859;79;20491;-54
2021/03/18 10:19:57;;;;;;;;;;;;;;;10.17;43.65;96384.23;1773775;79;20212;-52
2021/03/18 10:22:36;;;;;;;;;;;;;;;9.89;44.12;96390.09;1800520;79;21357;-55
2021/03/18 10:25:11;;;;;;;;;;;;;;;9.71;44.46;96387.04;1796207;79;20214;-54
2021/03/18 10:27:43;;;;;;;;;;;;;;;9.54;45.19;96387.75;1792277;79;20495;-54
2021/03/18 10:30:14;;;;;;;;;;;;;;;9.43;45.13;96388.14;1789520;80;20234;-54
2021/03/18 10:32:44;;;;;;;;;;;;;;;9.24;45.24;96388.56;1773153;80;20276;-54
2021/03/18 10:35:16;;;;;;;;;;;;;;;9.08;45.34;96383.59;1780692;79;21358;-54
2021/03/18 10:37:43;;;;;;;;;;;;;;;9.07;45.60;96380.19;1792736;80;20584;-54
2021/03/18 10:40:22;;;;;;;;;;;;;;;9.10;45.04;96379.16;1792228;80;20257;-53
2021/03/18 10:42:51;;;;;;;;;;;;;;;9.06;44.83;96384.17;1772411;80;20837;-53
2021/03/18 10:45:24;;;;;;;;;;;;;;;9.02;44.90;96376.61;1769509;80;20313;-54
2021/03/18 10:47:53;;;;;;;;;;;;;;;9.35;45.29;96384.30;1792744;80;21205;-54
2021/03/18 10:50:23;;;;;;;;;;;;;;;9.81;45.19;96382.86;1792729;80;20518;-54
2021/03/18 10:52:55;;;;;;;;;;;;;;;10.09;43.69;96375.70;1792708;80;20242;-54
2021/03/18 10:55:28;;;;;;;;;;;;;;;10.17;43.71;96373.39;1792856;80;20765;-54
2021/03/18 10:57:58;;;;;;;;;;;;;;;10.21;42.93;96372.21;1791018;80;20503;-54
2021/03/18 11:00:27;;;;;;;;;;;;;;;10.08;42.85;96376.19;1785794;80;21045;-53
2021/03/18 11:03:04;;;;;;;;;;;;;;;9.74;43.01;96370.80;1745337;81;20283;-53
2021/03/18 11:05:49;;;;;;;;;;;;;;;9.32;44.09;96369.45;1737891;81;20261;-54
2021/03/18 11:08:32;;;;;;;;;;;;;;;9.10;44.69;96364.93;1774713;80;20224;-54
2021/03/18 11:11:02;;;;;;;;;;;;;;;8.93;45.04;96360.43;1765575;80;20245;-53
2021/03/18 11:13:31;;;;;;;;;;;;;;;8.60;45.11;96359.62;1774551;80;21379;-53
2021/03/18 11:16:03;;;;;;;;;;;;;;;8.38;46.16;96357.13;1747021;81;22006;-54
2021/03/18 11:18:35;;;;;;;;;;;;;;;8.39;46.43;96352.80;1756777;80;20212;-60
2021/03/18 11:21:07;;;;;;;;;;;;;;;8.55;45.76;96357.80;1767030;80;20216;-56
2021/03/18 11:23:36;;;;;;;;;;;;;;;8.75;45.46;96361.64;1766965;80;20245;-56
2021/03/18 11:26:06;;;;;;;;;;;;;;;8.93;44.97;96360.43;1766928;80;21149;-57
2021/03/18 11:28:34;;;;;;;;;;;;;;;9.06;45.03;96359.11;1791528;79;20683;-57
2021/03/18 11:31:15;;;;;;;;;;;;;;;9.23;44.96;96352.80;1784665;79;20261;-56
2021/03/18 11:33:42;;;;;;;;;;;;;;;9.35;44.57;96357.59;1801884;79;20501;-56
2021/03/18 11:36:10;;;;;;;;;;;;;;;9.28;43.93;96345.53;1778717;79;20228;-56
2021/03/18 11:38:38;;;;;;;;;;;;;;;9.00;44.04;96357.78;1771709;81;22018;-56
2021/03/18 11:41:05;;;;;;;;;;;;;;;8.72;44.48;96351.53;1772660;79;20226;-56
2021/03/18 11:43:33;;;;;;;;;;;;;;;8.53;45.18;96346.27;1734958;80;20499;-58
2021/03/18 11:46:01;;;;;;;;;;;;;;;8.36;45.27;96345.24;1754478;81;20220;-58
2021/03/18 11:48:29;;;;;;;;;;;;;;;8.13;45.58;96345.45;1774771;81;20219;-58
2021/03/18 11:50:57;;;;;;;;;;;;;;;7.83;46.05;96341.29;1793824;79;21372;-58
2021/03/18 11:53:25;;;;;;;;;;;;;;;7.53;46.52;96343.14;1798770;79;20237;-57
2021/03/18 11:55:52;;;;;;;;;;;;;;;7.25;47.00;96341.41;1770753;80;20560;-58
2021/03/18 11:58:20;;;;;;;;;;;;;;;7.12;47.58;96344.38;1756343;80;20503;-57
2021/03/18 12:00:47;;;;;;;;;;;;;;;7.05;47.92;96344.39;1757635;80;20494;-58
2021/03/18 12:03:16;;;;;;;;;;;;;;;7.01;48.38;96341.17;1739528;82;21383;-57
2021/03/18 12:05:44;;;;;;;;;;;;;;;6.94;48.36;96338.58;1739738;82;20221;-55
2021/03/18 12:08:12;;;;;;;;;;;;;;;6.89;48.51;96344.47;1772997;81;20534;-55
2021/03/18 12:10:42;;;;;;;;;;;;;;;6.83;48.86;96335.83;1804097;79;20304;-55
2021/03/18 12:13:10;;;;;;;;;;;;;;;6.70;49.06;96334.44;1779706;79;20204;-60
2021/03/18 12:15:39;;;;;;;;;;;;;;;6.66;48.91;96337.66;1787865;79;20228;-60
2021/03/18 12:18:06;;;;;;;;;;;;;;;6.53;48.74;96332.83;1790357;79;20217;-59
2021/03/18 12:20:34;;;;;;;;;;;;;;;6.23;49.23;96336.27;1785032;79;20224;-59
2021/03/18 12:23:01;;;;;;;;;;;;;;;6.10;49.83;96344.32;1784701;79;20224;-59
2021/03/18 12:25:29;;;;;;;;;;;;;;;6.11;49.92;96336.52;1790204;79;20223;-60
2021/03/18 12:27:56;;;;;;;;;;;;;;;6.12;50.18;96339.47;1795704;79;22740;-59
2021/03/18 12:30:24;;;;;;;;;;;;;;;6.16;49.80;96341.41;1794628;79;20230;-60
2021/03/18 12:32:52;;;;;;;;;;;;;;;6.27;49.89;96333.90;1785261;79;20512;-56
2021/03/18 12:35:20;;;;;;;;;;;;;;;6.42;49.43;96332.18;1793964;79;20818;-61
2021/03/18 12:37:48;;;;;;;;;;;;;;;6.41;49.22;96328.78;1787171;79;20218;-62
2021/03/18 12:40:17;;;;;;;;;;;;;;;6.35;49.72;96336.86;1750165;81;21223;-62
2021/03/18 12:42:44;;;;;;;;;;;;;;;6.30;49.53;96335.45;1735026;81;20307;-64
2021/03/18 12:45:14;;;;;;;;;;;;;;;6.16;49.50;96344.80;1770328;81;20287;-64
2021/03/18 12:47:41;;;;;;;;;;;;;;;6.01;50.22;96337.95;1803582;79;20246;-65
2021/03/18 12:50:12;;;;;;;;;;;;;;;5.97;50.34;96335.16;1790351;79;20276;-64
2021/03/18 12:52:39;;;;;;;;;;;;;;;5.95;50.53;96335.22;1803806;79;21205;-63
2021/03/18 12:55:08;;;;;;;;;;;;;;;5.98;50.57;96329.11;1805178;79;20272;-62
2021/03/18 12:57:40;;;;;;;;;;;;;;;6.02;50.93;96334.44;1794745;79;20210;-62
2021/03/18 13:00:27;;;;;;;;;;;;;;;6.01;50.18;96332.33;1798299;79;20277;-61
2021/03/18 13:02:55;;;;;;;;;;;;;;;5.93;50.20;96331.08;1669004;84;20243;-62
2021/03/18 13:05:22;;;;;;;;;;;;;;;5.83;50.44;96330.30;1670055;84;22455;-62
2021/03/18 13:07:50;;;;;;;;;;;;;;;5.76;50.15;96327.70;1676067;84;20223;-62
2021/03/18 13:10:17;;;;;;;;;;;;;;;5.69;50.53;96332.36;1650858;85;20237;-60
2021/03/18 13:12:45;;;;;;;;;;;;;;;5.69;50.80;96332.36;1617510;87;20252;-62
2021/03/18 13:15:14;;;;;;;;;;;;;;;5.71;50.40;96331.81;1675096;84;20246;-62
2021/03/18 13:17:43;;;;;;;;;;;;;;;5.65;50.21;96330.03;1676527;84;20292;-61